createdAt,value
2023-05-10T00:04:45.689Z,15.02
2023-05-10T00:09:56.067Z,15.52
2023-05-10T00:14:59.432Z,11.88
2023-05-10T00:20:05.289Z,12.48
2023-05-10T00:25:05.843Z,9.95
2023-05-10T00:30:17.441Z,12.93
2023-05-10T00:35:21.391Z,12.48
2023-05-10T00:40:21.428Z,17.05
2023-05-10T00:45:25.453Z,17.30
2023-05-10T00:51:18.514Z,20.17
2023-05-10T00:56:20.988Z,12.77
2023-05-10T01:01:38.308Z,13.25
2023-05-10T01:06:53.753Z,14.35
2023-05-10T01:12:09.480Z,12.15
2023-05-10T01:17:14.881Z,11.63
2023-05-10T01:22:30.321Z,13.57
2023-05-10T01:27:57.793Z,11.40
2023-05-10T01:33:11.151Z,11.00
2023-05-10T01:38:23.200Z,11.85
2023-05-10T01:43:29.805Z,11.77
2023-05-10T01:48:33.251Z,9.82
2023-05-10T01:53:42.668Z,9.75
2023-05-10T01:58:54.611Z,10.82
2023-05-10T02:04:05.425Z,12.68
2023-05-10T02:14:48.110Z,9.15
2023-05-10T02:19:51.044Z,12.57
2023-05-10T02:25:01.424Z,16.48
2023-05-10T02:30:09.251Z,16.27
2023-05-10T02:35:16.031Z,30.83
2023-05-10T02:40:30.090Z,18.30
2023-05-10T02:45:33.599Z,20.23
2023-05-10T02:50:39.570Z,18.95
2023-05-10T02:56:02.910Z,16.20
2023-05-10T03:01:21.773Z,10.10
2023-05-10T03:06:23.204Z,11.27
2023-05-10T03:11:48.746Z,11.77
2023-05-10T03:16:56.457Z,15.20
2023-05-10T03:22:13.735Z,10.10
2023-05-10T03:33:20.511Z,10.35
2023-05-10T03:38:32.876Z,14.00
2023-05-10T03:43:56.063Z,10.10
2023-05-10T03:49:34.921Z,9.73
2023-05-10T03:54:57.571Z,10.05
2023-05-10T04:05:33.480Z,10.50
2023-05-10T04:11:08.463Z,12.55
2023-05-10T04:16:21.150Z,12.30
2023-05-10T04:21:27.964Z,9.68
2023-05-10T04:26:31.566Z,11.15
2023-05-10T04:31:39.314Z,14.15
2023-05-10T04:36:40.955Z,11.52
2023-05-10T04:41:53.302Z,17.83
2023-05-10T04:46:55.962Z,18.58
2023-05-10T04:51:59.509Z,12.45
2023-05-10T04:57:07.615Z,19.08
2023-05-10T05:02:17.042Z,26.88
2023-05-10T05:07:29.787Z,24.95
2023-05-10T05:12:28.534Z,21.25
2023-05-10T05:17:38.737Z,26.65
2023-05-10T05:23:49.899Z,19.15
2023-05-10T05:29:09.886Z,24.67
2023-05-10T05:34:48.528Z,19.60
2023-05-10T05:42:15.702Z,22.17
2023-05-10T05:47:55.942Z,24.45
2023-05-10T06:00:28.990Z,21.02
2023-05-10T06:11:53.505Z,15.57
2023-05-10T06:17:13.910Z,18.33
2023-05-10T06:28:23.653Z,17.83
2023-05-10T06:33:31.985Z,13.48
2023-05-10T06:44:10.139Z,17.50
2023-05-10T06:49:52.256Z,15.30
2023-05-10T06:55:00.699Z,18.17
2023-05-10T07:00:00.653Z,20.15
2023-05-10T07:05:15.809Z,14.68
2023-05-10T07:10:19.799Z,12.18
2023-05-10T07:15:22.128Z,14.07
2023-05-10T07:20:30.050Z,16.92
2023-05-10T07:25:42.476Z,12.05
2023-05-10T07:30:44.180Z,21.17
2023-05-10T07:42:05.491Z,12.70
2023-05-10T07:48:23.563Z,12.10
2023-05-10T07:53:49.539Z,7.90
2023-05-10T07:59:48.443Z,7.53
2023-05-10T08:05:41.309Z,11.45
2023-05-10T08:11:14.442Z,11.02
2023-05-10T08:23:18.574Z,8.65
2023-05-10T08:28:51.592Z,7.85
2023-05-10T08:33:58.792Z,9.95
2023-05-10T08:39:04.125Z,5.50
2023-05-10T08:44:26.158Z,3.22
2023-05-10T08:50:21.227Z,5.88
2023-05-10T08:55:48.424Z,3.80
2023-05-10T09:01:40.864Z,8.10
2023-05-10T09:09:59.904Z,3.90
2023-05-10T09:13:08.235Z,3.85
2023-05-10T09:18:51.199Z,3.28
2023-05-10T09:24:37.323Z,4.18
2023-05-10T09:30:40.492Z,2.85
2023-05-10T09:37:37.428Z,3.92
2023-05-10T09:43:16.601Z,4.90
2023-05-10T09:48:35.242Z,4.45
2023-05-10T09:54:28.315Z,6.43
2023-05-10T10:00:08.329Z,5.53
2023-05-10T10:05:17.016Z,3.00
2023-05-10T10:11:06.353Z,4.87
2023-05-10T10:28:26.850Z,5.07
2023-05-10T10:34:05.898Z,1.95
2023-05-10T10:39:26.318Z,4.28
2023-05-10T10:45:00.167Z,5.35
2023-05-10T10:50:29.128Z,1.90
2023-05-10T10:56:13.432Z,5.65
2023-05-10T11:01:20.837Z,3.78
2023-05-10T11:06:43.511Z,4.57
2023-05-10T11:12:39.837Z,5.15
2023-05-10T11:18:14.087Z,3.10
2023-05-10T11:23:54.302Z,3.70
2023-05-10T11:28:59.883Z,3.15
2023-05-10T11:34:22.213Z,3.30
2023-05-10T11:39:27.950Z,4.65
2023-05-10T11:44:44.995Z,2.90
2023-05-10T11:49:52.904Z,3.60
2023-05-10T11:55:03.146Z,2.58
2023-05-10T12:00:08.910Z,3.88
2023-05-10T12:05:21.425Z,5.60
2023-05-10T12:10:28.877Z,4.55
2023-05-10T12:15:28.463Z,3.72
2023-05-10T12:20:34.908Z,3.72
2023-05-10T12:25:42.464Z,4.00
2023-05-10T12:30:43.818Z,3.03
2023-05-10T12:35:55.450Z,3.47
2023-05-10T12:40:56.811Z,4.38
2023-05-10T12:46:10.029Z,6.75
2023-05-10T12:51:10.181Z,2.03
2023-05-10T12:56:10.482Z,3.10
2023-05-10T13:06:40.166Z,2.10
2023-05-10T13:12:01.296Z,4.45
2023-05-10T13:17:06.294Z,7.30
2023-05-10T13:27:09.688Z,4.32
2023-05-10T13:32:11.596Z,3.40
2023-05-10T13:37:21.969Z,2.45
2023-05-10T13:42:21.282Z,3.90
2023-05-10T13:47:24.553Z,3.88
2023-05-10T13:52:42.880Z,6.18
2023-05-10T13:58:03.698Z,2.78
2023-05-10T14:03:11.565Z,6.05
2023-05-10T14:08:15.283Z,3.35
2023-05-10T14:13:14.242Z,6.38
2023-05-10T14:18:15.633Z,3.88
2023-05-10T14:23:22.583Z,6.65
2023-05-10T14:28:23.398Z,8.63
2023-05-10T14:39:50.299Z,4.97
2023-05-10T14:45:01.430Z,3.45
2023-05-10T14:55:28.803Z,2.58
2023-05-10T15:00:46.994Z,5.38
2023-05-10T15:06:00.927Z,5.50
2023-05-10T15:11:08.489Z,4.22
2023-05-10T15:16:27.718Z,5.35
2023-05-10T15:22:15.928Z,5.50
2023-05-10T15:34:43.423Z,4.30
2023-05-10T15:40:29.152Z,3.70
2023-05-10T15:54:05.814Z,4.07
2023-05-10T16:00:18.137Z,5.05
2023-05-10T16:06:32.818Z,3.83
2023-05-10T16:12:24.376Z,3.83
2023-05-10T16:18:33.725Z,5.40
2023-05-10T16:50:13.102Z,6.07
2023-05-10T17:16:14.606Z,7.72
2023-05-10T17:27:47.811Z,5.38
2023-05-10T17:33:20.517Z,4.43
2023-05-10T17:38:42.981Z,7.60
2023-05-10T17:51:24.142Z,19.80
2023-05-10T18:04:32.235Z,5.78
2023-05-10T18:10:11.189Z,9.93
2023-05-10T18:16:00.987Z,6.55
2023-05-10T18:21:47.479Z,5.03
2023-05-10T18:35:14.612Z,10.00
2023-05-10T18:53:03.307Z,8.27
2023-05-10T18:58:24.135Z,5.63
2023-05-10T19:03:31.121Z,9.20
2023-05-10T19:08:38.704Z,8.60
2023-05-10T19:13:54.918Z,4.72
2023-05-10T19:19:19.960Z,5.63
2023-05-10T19:24:52.292Z,5.20
2023-05-10T19:29:51.167Z,4.23
2023-05-10T19:35:34.831Z,4.80
2023-05-10T19:47:21.453Z,4.47
2023-05-10T19:52:30.934Z,4.70
2023-05-10T19:57:52.870Z,6.68
2023-05-10T20:08:36.542Z,3.38
2023-05-10T20:14:02.299Z,5.07
2023-05-10T20:19:10.623Z,4.43
2023-05-10T20:24:18.749Z,5.95
2023-05-10T20:29:23.687Z,8.52
2023-05-10T20:34:29.168Z,3.72
2023-05-10T20:39:46.386Z,3.85
2023-05-10T20:44:55.635Z,2.88
2023-05-10T20:50:11.461Z,7.82
2023-05-10T20:55:22.651Z,3.92
2023-05-10T21:00:49.516Z,3.75
2023-05-10T21:06:15.607Z,4.05
2023-05-10T21:11:22.756Z,6.55
2023-05-10T21:16:29.819Z,3.88
2023-05-10T21:21:40.991Z,5.10
2023-05-10T21:26:47.121Z,6.68
2023-05-10T21:31:59.480Z,4.13
2023-05-10T21:36:58.934Z,5.57
2023-05-10T21:42:07.370Z,4.57
2023-05-10T21:47:05.086Z,6.22
2023-05-10T21:52:07.946Z,5.18
2023-05-10T21:57:10.802Z,7.28
2023-05-10T22:02:15.401Z,7.32
2023-05-10T22:07:16.488Z,4.40
2023-05-10T22:12:29.051Z,4.55
2023-05-10T22:17:31.089Z,5.03
2023-05-10T22:22:33.830Z,4.60
2023-05-10T22:28:11.537Z,4.43
2023-05-10T22:33:23.156Z,8.00
2023-05-10T22:38:27.900Z,6.40
2023-05-10T22:43:25.993Z,4.47
2023-05-10T22:48:25.710Z,7.07
2023-05-10T22:53:28.295Z,6.22
2023-05-10T22:58:30.254Z,5.47
2023-05-10T23:03:31.580Z,8.10
2023-05-10T23:08:32.585Z,6.70
2023-05-10T23:13:41.468Z,6.47
2023-05-10T23:18:42.766Z,7.00
2023-05-10T23:23:44.935Z,6.45
2023-05-10T23:28:59.286Z,5.97
2023-05-10T23:34:00.661Z,7.53
2023-05-10T23:39:08.019Z,10.55
2023-05-10T23:44:06.432Z,6.53
2023-05-10T23:49:21.419Z,6.18
2023-05-10T23:54:21.093Z,6.40
2023-05-10T23:59:31.837Z,5.93
